Time;durP1;ratioP1;P1;durP2;ratioP2;P2;SDS_P1;SDS_P2;PMS_P1;PMS_P2;Temp;Humidity;BMP_temperature;BMP_pressure;BME280_temperature;BME280_humidity;BME280_pressure;Samples;Min_cycle;Max_cycle;Signal;HPM_P1;HPM_P2
2023/05/05 00:00:01;;;;;;;;;;;;;;;;;;1046225;28;3883;-50
2023/05/05 00:00:31;;;;;;;;;;;;;;;;;;1044853;28;3128;-48
2023/05/05 00:01:16;;;;;;;;;;;;;;;;;;1046081;28;3900;-49
2023/05/05 00:01:46;;;;;;;;;;;;;;;;;;1043699;28;3798;-51
2023/05/05 00:02:16;;;;;;;;;;;;;;;;;;1046092;28;3278;-50
2023/05/05 00:02:47;;;;;;;;;;;;;;;;;;1045978;28;3940;-47
2023/05/05 00:03:19;;;;;;;;;;;;;;;;;;1047891;28;1695;-48
2023/05/05 00:03:49;;;;;;;;;;;;;;;;;;1046351;28;4030;-47
2023/05/05 00:04:21;;;;;;;;;;;;;;;;;;1044411;28;3121;-49
2023/05/05 00:04:51;;;;;;;;;;;;;;;;;;1046444;28;3862;-47
2023/05/05 00:05:23;;;;;;;;;;;;;;;;;;1047775;28;1757;-48
2023/05/05 00:05:54;;;;;;;;;;;;;;;;;;1045225;28;3923;-50
2023/05/05 00:06:24;;;;;;;;;;;;;;;;;;1045992;28;3130;-51
2023/05/05 00:06:54;;;;;;;;;;;;;;;;;;1043435;28;4172;-51
2023/05/05 00:07:24;;;;;;;;;;;;;;;;;;1046882;28;3062;-50
2023/05/05 00:07:55;;;;;;;;;;;;;;;;;;1046050;28;4417;-48
2023/05/05 00:08:25;;;;;;;;;;;;;;;;;;1044052;28;2908;-49
2023/05/05 00:08:55;;;;;;;;;;;;;;;;;;1043859;28;4131;-48
2023/05/05 00:09:25;;;;;;;;;;;;;;;;;;1045194;28;2956;-49
2023/05/05 00:09:56;;;;;;;;;;;;;;;;;;1044634;28;3783;-47
2023/05/05 00:10:26;;;;;;;;;;;;;;;;;;1043055;28;3221;-47
2023/05/05 00:10:57;;;;;;;;;;;;;;;;;;1045832;28;3960;-53
2023/05/05 00:11:27;;;;;;;;;;;;;;;;;;1045031;28;2883;-47
2023/05/05 00:11:57;;;;;;;;;;;;;;;;;;1044828;28;3834;-49
2023/05/05 00:12:27;;;;;;;;;;;;;;;;;;1046719;28;1857;-47
2023/05/05 00:12:58;;;;;;;;;;;;;;;;;;1047175;28;4026;-49
2023/05/05 00:13:28;;;;;;;;;;;;;;;;;;1046599;28;1806;-49
2023/05/05 00:13:58;;;;;;;;;;;;;;;;;;1044782;28;3919;-49
2023/05/05 00:14:28;;;;;;;;;;;;;;;;;;1043839;28;3583;-46
2023/05/05 00:14:59;;;;;;;;;;;;;;;;;;1046610;28;3820;-47
2023/05/05 00:15:29;;;;;;;;;;;;;;;;;;1043179;28;3056;-48
2023/05/05 00:15:59;;;;;;;;;;;;;;;;;;1045823;28;3717;-47
2023/05/05 00:16:30;;;;;;;;;;;;;;;;;;1045325;28;2899;-48
2023/05/05 00:17:00;;;;;;;;;;;;;;;;;;1045653;28;3982;-45
2023/05/05 00:17:30;;;;;;;;;;;;;;;;;;1047212;28;1836;-49
2023/05/05 00:18:01;;;;;;;;;;;;;;;;;;1045045;28;3951;-48
2023/05/05 00:18:32;;;;;;;;;;;;;;;;;;1046122;28;1922;-50
2023/05/05 00:19:02;;;;;;;;;;;;;;;;;;1045019;28;3857;-47
2023/05/05 00:19:33;;;;;;;;;;;;;;;;;;1047284;28;1762;-51
2023/05/05 00:20:03;;;;;;;;;;;;;;;;;;1046047;28;3725;-54
2023/05/05 00:20:34;;;;;;;;;;;;;;;;;;1047658;28;1965;-50
2023/05/05 00:21:04;;;;;;;;;;;;;;;;;;1046220;28;4029;-50
2023/05/05 00:21:34;;;;;;;;;;;;;;;;;;1046960;28;1825;-46
2023/05/05 00:22:05;;;;;;;;;;;;;;;;;;1045280;28;3768;-46
2023/05/05 00:22:35;;;;;;;;;;;;;;;;;;1047553;28;1756;-50
2023/05/05 00:23:06;;;;;;;;;;;;;;;;;;1046095;28;3912;-49
2023/05/05 00:23:36;;;;;;;;;;;;;;;;;;1047530;28;1778;-46
2023/05/05 00:24:08;;;;;;;;;;;;;;;;;;1048060;28;3851;-45
2023/05/05 00:24:39;;;;;;;;;;;;;;;;;;1050400;28;3810;-52
2023/05/05 00:25:09;;;;;;;;;;;;;;;;;;1044221;28;2943;-47
2023/05/05 00:25:40;;;;;;;;;;;;;;;;;;1046709;28;3863;-51
2023/05/05 00:26:10;;;;;;;;;;;;;;;;;;1046154;28;2975;-45
2023/05/05 00:26:40;;;;;;;;;;;;;;;;;;1043254;28;4462;-49
2023/05/05 00:27:11;;;;;;;;;;;;;;;;;;1045680;28;3633;-50
2023/05/05 00:27:41;;;;;;;;;;;;;;;;;;1046736;28;4621;-46
2023/05/05 00:28:12;;;;;;;;;;;;;;;;;;1047288;28;2844;-49
2023/05/05 00:28:43;;;;;;;;;;;;;;;;;;1046164;28;3864;-48
2023/05/05 00:29:13;;;;;;;;;;;;;;;;;;1046332;28;2892;-46
2023/05/05 00:29:43;;;;;;;;;;;;;;;;;;1046602;28;3791;-47
2023/05/05 00:30:14;;;;;;;;;;;;;;;;;;1045453;28;2999;-48
2023/05/05 00:30:44;;;;;;;;;;;;;;;;;;1044939;28;3792;-47
2023/05/05 00:31:15;;;;;;;;;;;;;;;;;;1047751;28;1664;-45
2023/05/05 00:31:45;;;;;;;;;;;;;;;;;;1045084;28;3805;-49
2023/05/05 00:32:16;;;;;;;;;;;;;;;;;;1046558;28;2773;-47
2023/05/05 00:32:46;;;;;;;;;;;;;;;;;;1045212;28;3862;-47
2023/05/05 00:33:16;;;;;;;;;;;;;;;;;;1045766;28;3017;-48
2023/05/05 00:33:47;;;;;;;;;;;;;;;;;;1045141;28;4440;-49
2023/05/05 00:34:17;;;;;;;;;;;;;;;;;;1046511;28;3478;-49
2023/05/05 00:34:47;;;;;;;;;;;;;;;;;;1044061;28;3952;-48
2023/05/05 00:35:18;;;;;;;;;;;;;;;;;;1047280;28;3193;-48
2023/05/05 00:35:48;;;;;;;;;;;;;;;;;;1046022;28;3889;-48
2023/05/05 00:36:18;;;;;;;;;;;;;;;;;;1044927;28;3231;-51
2023/05/05 00:36:48;;;;;;;;;;;;;;;;;;1044965;28;3869;-47
2023/05/05 00:37:19;;;;;;;;;;;;;;;;;;1044690;28;2701;-50
2023/05/05 00:37:49;;;;;;;;;;;;;;;;;;1047277;28;4411;-48
2023/05/05 00:38:19;;;;;;;;;;;;;;;;;;1046847;28;1784;-48
2023/05/05 00:38:49;;;;;;;;;;;;;;;;;;1047128;28;4369;-45
2023/05/05 00:39:20;;;;;;;;;;;;;;;;;;1046774;28;1702;-48
2023/05/05 00:39:50;;;;;;;;;;;;;;;;;;1045801;28;4044;-46
2023/05/05 00:40:21;;;;;;;;;;;;;;;;;;1045165;28;2855;-50
2023/05/05 00:40:51;;;;;;;;;;;;;;;;;;1044508;28;3777;-49
2023/05/05 00:41:21;;;;;;;;;;;;;;;;;;1046642;28;3003;-52
2023/05/05 00:41:51;;;;;;;;;;;;;;;;;;1045289;28;4108;-49
2023/05/05 00:42:22;;;;;;;;;;;;;;;;;;1046364;28;1889;-47
2023/05/05 00:42:52;;;;;;;;;;;;;;;;;;1045119;28;3786;-49
2023/05/05 00:43:22;;;;;;;;;;;;;;;;;;1047303;28;1978;-45
2023/05/05 00:43:53;;;;;;;;;;;;;;;;;;1045647;28;3780;-47
2023/05/05 00:44:33;;;;;;;;;;;;;;;;;;1046602;28;2007;-47
2023/05/05 00:45:03;;;;;;;;;;;;;;;;;;1045981;28;3755;-50
2023/05/05 00:45:36;;;;;;;;;;;;;;;;;;1046212;28;2147;-48
2023/05/05 00:46:13;;;;;;;;;;;;;;;;;;1046463;28;3855;-47
2023/05/05 00:46:43;;;;;;;;;;;;;;;;;;1044621;28;3877;-46
2023/05/05 00:47:15;;;;;;;;;;;;;;;;;;1046819;28;2373;-53
2023/05/05 00:47:50;;;;;;;;;;;;;;;;;;1046111;28;4051;-51
2023/05/05 00:48:23;;;;;;;;;;;;;;;;;;1047377;28;2519;-47
2023/05/05 00:48:53;;;;;;;;;;;;;;;;;;1045738;28;4333;-46
2023/05/05 00:49:23;;;;;;;;;;;;;;;;;;1048887;28;2975;-47
2023/05/05 00:49:54;;;;;;;;;;;;;;;;;;1050174;28;3955;-48
2023/05/05 00:50:27;;;;;;;;;;;;;;;;;;1051036;28;1820;-45
2023/05/05 00:50:58;;;;;;;;;;;;;;;;;;1050534;28;3903;-47
2023/05/05 00:51:28;;;;;;;;;;;;;;;;;;1046462;28;1849;-47
2023/05/05 00:51:59;;;;;;;;;;;;;;;;;;1046138;28;4027;-46
2023/05/05 00:52:30;;;;;;;;;;;;;;;;;;1046302;28;1801;-47
2023/05/05 00:53:02;;;;;;;;;;;;;;;;;;1045708;28;4359;-46
2023/05/05 00:53:33;;;;;;;;;;;;;;;;;;1045299;28;2862;-51
2023/05/05 00:54:04;;;;;;;;;;;;;;;;;;1046371;28;4027;-47
2023/05/05 00:54:34;;;;;;;;;;;;;;;;;;1044756;28;2798;-48
2023/05/05 00:55:05;;;;;;;;;;;;;;;;;;1043625;28;4041;-48
2023/05/05 00:55:36;;;;;;;;;;;;;;;;;;1046247;28;1646;-48
2023/05/05 00:56:06;;;;;;;;;;;;;;;;;;1045780;28;3879;-47
2023/05/05 00:56:36;;;;;;;;;;;;;;;;;;1046127;28;3037;-48
2023/05/05 00:57:07;;;;;;;;;;;;;;;;;;1045703;28;3706;-48
2023/05/05 00:57:37;;;;;;;;;;;;;;;;;;1044665;28;2903;-47
2023/05/05 00:58:08;;;;;;;;;;;;;;;;;;1046649;28;4000;-55
2023/05/05 00:58:41;;;;;;;;;;;;;;;;;;1043788;28;4067;-49
2023/05/05 00:59:11;;;;;;;;;;;;;;;;;;1045996;28;1803;-51
2023/05/05 00:59:42;;;;;;;;;;;;;;;;;;1044154;28;4163;-49
2023/05/05 01:00:12;;;;;;;;;;;;;;;;;;1045325;28;2643;-48
2023/05/05 01:00:43;;;;;;;;;;;;;;;;;;1047917;28;4233;-49
2023/05/05 01:01:14;;;;;;;;;;;;;;;;;;1054382;28;3275;-47
2023/05/05 01:01:45;;;;;;;;;;;;;;;;;;1053945;28;4959;-48
2023/05/05 01:02:15;;;;;;;;;;;;;;;;;;1054634;28;1696;-49
2023/05/05 01:02:45;;;;;;;;;;;;;;;;;;1046490;28;4048;-48
2023/05/05 01:03:15;;;;;;;;;;;;;;;;;;1047168;28;1737;-45
2023/05/05 01:03:46;;;;;;;;;;;;;;;;;;1045458;28;3877;-46
2023/05/05 01:04:16;;;;;;;;;;;;;;;;;;1045773;28;3259;-48
2023/05/05 01:04:47;;;;;;;;;;;;;;;;;;1045789;28;4188;-46
2023/05/05 01:05:18;;;;;;;;;;;;;;;;;;1045951;28;2976;-49
2023/05/05 01:06:01;;;;;;;;;;;;;;;;;;1046527;28;3780;-47
2023/05/05 01:06:55;;;;;;;;;;;;;;;;;;1045793;28;2828;-46
2023/05/05 01:07:31;;;;;;;;;;;;;;;;;;1035035;28;3802;-48
2023/05/05 01:08:26;;;;;;;;;;;;;;;;;;1046097;28;3933;-51
2023/05/05 01:09:01;;;;;;;;;;;;;;;;;;1047255;28;4013;-51
2023/05/05 01:09:48;;;;;;;;;;;;;;;;;;1046825;28;1680;-47
2023/05/05 01:10:39;;;;;;;;;;;;;;;;;;1046851;28;5265;-49
2023/05/05 01:11:18;;;;;;;;;;;;;;;;;;1047156;28;3977;-50
2023/05/05 01:11:54;;;;;;;;;;;;;;;;;;1044751;28;4025;-50
2023/05/05 01:12:38;;;;;;;;;;;;;;;;;;1042916;28;1904;-48
2023/05/05 01:13:15;;;;;;;;;;;;;;;;;;1046847;28;3945;-51
2023/05/05 01:13:51;;;;;;;;;;;;;;;;;;1045980;28;3785;-47
2023/05/05 01:14:32;;;;;;;;;;;;;;;;;;1046719;28;2016;-47
2023/05/05 01:15:09;;;;;;;;;;;;;;;;;;1044068;28;4042;-54
2023/05/05 01:15:45;;;;;;;;;;;;;;;;;;1044366;28;4005;-47
2023/05/05 01:16:15;;;;;;;;;;;;;;;;;;1044586;28;2963;-51
2023/05/05 01:16:53;;;;;;;;;;;;;;;;;;1045956;28;3888;-50
2023/05/05 01:17:27;;;;;;;;;;;;;;;;;;1046357;28;1652;-48
2023/05/05 01:18:02;;;;;;;;;;;;;;;;;;1045494;28;4147;-50
2023/05/05 01:18:33;;;;;;;;;;;;;;;;;;1047497;28;1637;-48
2023/05/05 01:19:06;;;;;;;;;;;;;;;;;;1044347;28;3902;-51
2023/05/05 01:19:43;;;;;;;;;;;;;;;;;;1046171;28;1659;-47
2023/05/05 01:20:21;;;;;;;;;;;;;;;;;;1046926;28;3969;-47
2023/05/05 01:20:54;;;;;;;;;;;;;;;;;;1044650;28;4034;-48
2023/05/05 01:21:28;;;;;;;;;;;;;;;;;;1042060;28;1772;-49
2023/05/05 01:22:01;;;;;;;;;;;;;;;;;;1043709;28;3914;-47
2023/05/05 01:22:40;;;;;;;;;;;;;;;;;;1044717;28;2959;-47
2023/05/05 01:23:17;;;;;;;;;;;;;;;;;;1039720;28;3948;-47
2023/05/05 01:23:59;;;;;;;;;;;;;;;;;;1040204;28;4106;-46
2023/05/05 01:24:44;;;;;;;;;;;;;;;;;;1039749;28;3229;-46
2023/05/05 01:25:17;;;;;;;;;;;;;;;;;;1046211;28;3894;-48
2023/05/05 01:26:06;;;;;;;;;;;;;;;;;;1045291;28;4442;-50
2023/05/05 01:26:55;;;;;;;;;;;;;;;;;;1041504;28;2671;-48
2023/05/05 01:28:04;;;;;;;;;;;;;;;;;;1045769;28;3765;-50
2023/05/05 01:28:52;;;;;;;;;;;;;;;;;;1033251;28;3666;-46
2023/05/05 01:29:41;;;;;;;;;;;;;;;;;;1033609;28;3843;-49
2023/05/05 01:30:30;;;;;;;;;;;;;;;;;;1033036;28;3990;-47
2023/05/05 01:31:18;;;;;;;;;;;;;;;;;;1033373;28;3789;-48
2023/05/05 01:31:51;;;;;;;;;;;;;;;;;;1032784;28;4446;-45
2023/05/05 01:32:24;;;;;;;;;;;;;;;;;;1034426;28;2456;-49
2023/05/05 01:32:59;;;;;;;;;;;;;;;;;;1032493;28;3813;-50
2023/05/05 01:33:40;;;;;;;;;;;;;;;;;;1032874;28;2909;-47
2023/05/05 01:34:14;;;;;;;;;;;;;;;;;;1033933;28;3812;-48
2023/05/05 01:34:50;;;;;;;;;;;;;;;;;;1040126;28;4036;-46
2023/05/05 01:35:28;;;;;;;;;;;;;;;;;;1044694;28;2784;-47
2023/05/05 01:36:02;;;;;;;;;;;;;;;;;;1045777;28;4004;-51
2023/05/05 01:36:35;;;;;;;;;;;;;;;;;;1047325;28;2643;-48
2023/05/05 01:37:10;;;;;;;;;;;;;;;;;;1046339;28;3702;-48
2023/05/05 01:37:50;;;;;;;;;;;;;;;;;;1046633;28;3845;-48
2023/05/05 01:38:21;;;;;;;;;;;;;;;;;;1046802;28;1857;-46
2023/05/05 01:38:56;;;;;;;;;;;;;;;;;;1046913;28;3848;-50
2023/05/05 01:39:27;;;;;;;;;;;;;;;;;;1046621;28;2002;-49
2023/05/05 01:40:02;;;;;;;;;;;;;;;;;;1048874;28;4059;-45
2023/05/05 01:40:41;;;;;;;;;;;;;;;;;;1046670;28;2341;-45
2023/05/05 01:41:11;;;;;;;;;;;;;;;;;;1047035;28;3740;-47
2023/05/05 01:41:43;;;;;;;;;;;;;;;;;;1043886;28;3975;-46
2023/05/05 01:42:14;;;;;;;;;;;;;;;;;;1043398;28;1679;-46
2023/05/05 01:42:44;;;;;;;;;;;;;;;;;;1041524;28;3814;-49
2023/05/05 01:43:17;;;;;;;;;;;;;;;;;;1046219;28;1775;-47
2023/05/05 01:43:49;;;;;;;;;;;;;;;;;;1046355;28;3772;-48
2023/05/05 01:44:19;;;;;;;;;;;;;;;;;;1047153;28;1629;-50
2023/05/05 01:44:50;;;;;;;;;;;;;;;;;;1046164;28;4030;-52
2023/05/05 01:45:23;;;;;;;;;;;;;;;;;;1045328;28;3190;-49
2023/05/05 01:45:54;;;;;;;;;;;;;;;;;;1046365;28;4381;-49
2023/05/05 01:46:25;;;;;;;;;;;;;;;;;;1046786;28;1858;-48
2023/05/05 01:46:56;;;;;;;;;;;;;;;;;;1046348;28;4414;-49
2023/05/05 01:47:27;;;;;;;;;;;;;;;;;;1047049;28;1667;-48
2023/05/05 01:47:58;;;;;;;;;;;;;;;;;;1046408;28;3898;-47
2023/05/05 01:48:29;;;;;;;;;;;;;;;;;;1044235;28;2952;-50
2023/05/05 01:49:00;;;;;;;;;;;;;;;;;;1044709;28;3942;-49
2023/05/05 01:49:32;;;;;;;;;;;;;;;;;;1046812;28;1691;-48
2023/05/05 01:50:03;;;;;;;;;;;;;;;;;;1045608;28;3888;-51
2023/05/05 01:50:33;;;;;;;;;;;;;;;;;;1045825;28;2970;-46
2023/05/05 01:51:04;;;;;;;;;;;;;;;;;;1046869;28;4009;-46
2023/05/05 01:51:35;;;;;;;;;;;;;;;;;;1045268;28;3197;-49
2023/05/05 01:52:08;;;;;;;;;;;;;;;;;;1046298;28;3973;-50
2023/05/05 01:52:38;;;;;;;;;;;;;;;;;;1046030;28;4434;-48
2023/05/05 01:53:10;;;;;;;;;;;;;;;;;;1045697;28;2083;-47
2023/05/05 01:53:41;;;;;;;;;;;;;;;;;;1045913;28;3952;-47
2023/05/05 01:54:12;;;;;;;;;;;;;;;;;;1047546;28;1308;-51
2023/05/05 01:54:46;;;;;;;;;;;;;;;;;;1046590;28;3886;-48
2023/05/05 01:55:17;;;;;;;;;;;;;;;;;;1044426;28;2841;-46
2023/05/05 01:55:48;;;;;;;;;;;;;;;;;;1044892;28;4061;-51
2023/05/05 01:56:19;;;;;;;;;;;;;;;;;;1045852;28;3213;-48
2023/05/05 01:56:50;;;;;;;;;;;;;;;;;;1045431;28;3787;-51
2023/05/05 01:57:21;;;;;;;;;;;;;;;;;;1046650;28;1396;-48
2023/05/05 01:57:53;;;;;;;;;;;;;;;;;;1046653;28;4009;-47
2023/05/05 01:58:24;;;;;;;;;;;;;;;;;;1045101;28;2922;-51
2023/05/05 01:58:54;;;;;;;;;;;;;;;;;;1045783;28;3980;-47
2023/05/05 01:59:25;;;;;;;;;;;;;;;;;;1046272;28;1793;-51
2023/05/05 01:59:56;;;;;;;;;;;;;;;;;;1048083;28;3967;-46
2023/05/05 02:00:27;;;;;;;;;;;;;;;;;;1044352;28;3124;-48
2023/05/05 02:00:58;;;;;;;;;;;;;;;;;;1044248;28;4045;-50
2023/05/05 02:01:29;;;;;;;;;;;;;;;;;;1043359;28;3184;-51
2023/05/05 02:02:00;;;;;;;;;;;;;;;;;;1048526;28;4012;-46
2023/05/05 02:02:31;;;;;;;;;;;;;;;;;;1049897;28;1707;-49
2023/05/05 02:03:03;;;;;;;;;;;;;;;;;;1050173;28;3735;-50
2023/05/05 02:03:35;;;;;;;;;;;;;;;;;;1047814;28;2988;-46
2023/05/05 02:04:05;;;;;;;;;;;;;;;;;;1046026;28;4162;-51
2023/05/05 02:04:38;;;;;;;;;;;;;;;;;;1046277;28;2220;-50
2023/05/05 02:05:09;;;;;;;;;;;;;;;;;;1045446;28;3986;-49
2023/05/05 02:05:40;;;;;;;;;;;;;;;;;;1041407;28;3981;-46
2023/05/05 02:06:11;;;;;;;;;;;;;;;;;;1047059;28;1742;-49
2023/05/05 02:06:43;;;;;;;;;;;;;;;;;;1045784;28;3966;-48
2023/05/05 02:07:14;;;;;;;;;;;;;;;;;;1041854;28;1948;-51
2023/05/05 02:07:45;;;;;;;;;;;;;;;;;;1042333;28;3980;-47
2023/05/05 02:08:15;;;;;;;;;;;;;;;;;;1047150;28;1836;-51
2023/05/05 02:08:47;;;;;;;;;;;;;;;;;;1041799;28;3981;-48
2023/05/05 02:09:18;;;;;;;;;;;;;;;;;;1042870;28;1714;-47
2023/05/05 02:09:48;;;;;;;;;;;;;;;;;;1041804;28;3853;-51
2023/05/05 02:10:19;;;;;;;;;;;;;;;;;;1041650;28;3065;-48
2023/05/05 02:10:49;;;;;;;;;;;;;;;;;;1042705;28;4511;-51
2023/05/05 02:11:20;;;;;;;;;;;;;;;;;;1046144;28;2972;-46
2023/05/05 02:11:51;;;;;;;;;;;;;;;;;;1045944;28;4103;-47
2023/05/05 02:12:21;;;;;;;;;;;;;;;;;;1047192;28;1812;-48
2023/05/05 02:12:52;;;;;;;;;;;;;;;;;;1046464;28;4216;-48
2023/05/05 02:13:24;;;;;;;;;;;;;;;;;;1045799;28;1829;-45
2023/05/05 02:13:55;;;;;;;;;;;;;;;;;;1045151;28;4586;-50
2023/05/05 02:14:28;;;;;;;;;;;;;;;;;;1045235;28;2833;-47
2023/05/05 02:15:00;;;;;;;;;;;;;;;;;;1044286;28;4052;-52
2023/05/05 02:15:30;;;;;;;;;;;;;;;;;;1042113;28;2960;-48
2023/05/05 02:16:02;;;;;;;;;;;;;;;;;;1045411;28;3969;-46
2023/05/05 02:16:32;;;;;;;;;;;;;;;;;;1045683;28;2832;-49
2023/05/05 02:17:02;;;;;;;;;;;;;;;;;;1044922;28;3758;-48
2023/05/05 02:17:33;;;;;;;;;;;;;;;;;;1044622;28;2897;-50
2023/05/05 02:18:07;;;;;;;;;;;;;;;;;;1044536;28;3850;-48
2023/05/05 02:18:37;;;;;;;;;;;;;;;;;;1045793;28;1667;-47
2023/05/05 02:19:08;;;;;;;;;;;;;;;;;;1046855;28;3939;-48
2023/05/05 02:19:40;;;;;;;;;;;;;;;;;;1045770;28;4353;-48
2023/05/05 02:20:11;;;;;;;;;;;;;;;;;;1045254;28;2984;-47
2023/05/05 02:20:42;;;;;;;;;;;;;;;;;;1044810;28;4058;-47
2023/05/05 02:21:13;;;;;;;;;;;;;;;;;;1046044;28;2973;-48
2023/05/05 02:21:43;;;;;;;;;;;;;;;;;;1045059;28;4449;-48
2023/05/05 02:22:15;;;;;;;;;;;;;;;;;;1045531;28;2740;-48
2023/05/05 02:22:46;;;;;;;;;;;;;;;;;;1045159;28;3906;-49
2023/05/05 02:23:16;;;;;;;;;;;;;;;;;;1045145;28;2631;-46
2023/05/05 02:23:50;;;;;;;;;;;;;;;;;;1044152;28;3933;-49
2023/05/05 02:24:20;;;;;;;;;;;;;;;;;;1045934;28;2643;-49
2023/05/05 02:24:51;;;;;;;;;;;;;;;;;;1046144;28;4251;-47
2023/05/05 02:25:22;;;;;;;;;;;;;;;;;;1044413;28;3148;-49
2023/05/05 02:25:54;;;;;;;;;;;;;;;;;;1044877;28;3961;-46
2023/05/05 02:26:25;;;;;;;;;;;;;;;;;;1046460;28;1682;-47
2023/05/05 02:26:56;;;;;;;;;;;;;;;;;;1046281;28;4072;-47
2023/05/05 02:27:27;;;;;;;;;;;;;;;;;;1045666;28;2969;-46
2023/05/05 02:27:59;;;;;;;;;;;;;;;;;;1043106;28;3789;-47
2023/05/05 02:28:34;;;;;;;;;;;;;;;;;;1046768;28;3770;-50
2023/05/05 02:29:07;;;;;;;;;;;;;;;;;;1044714;28;3997;-52
2023/05/05 02:29:45;;;;;;;;;;;;;;;;;;1046222;28;2611;-51
2023/05/05 02:30:18;;;;;;;;;;;;;;;;;;1044686;28;5573;-52
2023/05/05 02:30:54;;;;;;;;;;;;;;;;;;1045264;28;3795;-46
2023/05/05 02:31:26;;;;;;;;;;;;;;;;;;1039976;28;2975;-49
2023/05/05 02:32:00;;;;;;;;;;;;;;;;;;1041823;28;4008;-48
2023/05/05 02:32:33;;;;;;;;;;;;;;;;;;1041244;28;1841;-47
2023/05/05 02:33:05;;;;;;;;;;;;;;;;;;1040921;28;4051;-47
2023/05/05 02:33:36;;;;;;;;;;;;;;;;;;1042327;28;1929;-48
2023/05/05 02:34:07;;;;;;;;;;;;;;;;;;1042417;28;3777;-48
2023/05/05 02:34:38;;;;;;;;;;;;;;;;;;1041626;28;2206;-49
2023/05/05 02:35:18;;;;;;;;;;;;;;;;;;1045872;28;4019;-46
2023/05/05 02:35:50;;;;;;;;;;;;;;;;;;1043085;28;4077;-47
2023/05/05 02:36:22;;;;;;;;;;;;;;;;;;1047360;28;1622;-47
2023/05/05 02:36:56;;;;;;;;;;;;;;;;;;1042487;28;3886;-48
2023/05/05 02:37:27;;;;;;;;;;;;;;;;;;1040894;28;2711;-50
2023/05/05 02:38:01;;;;;;;;;;;;;;;;;;1039864;28;4484;-52
2023/05/05 02:38:32;;;;;;;;;;;;;;;;;;1041298;28;2899;-47
2023/05/05 02:39:06;;;;;;;;;;;;;;;;;;1041464;28;4237;-49
2023/05/05 02:39:39;;;;;;;;;;;;;;;;;;1042945;28;1687;-48
2023/05/05 02:40:10;;;;;;;;;;;;;;;;;;1044018;28;3896;-48
2023/05/05 02:40:42;;;;;;;;;;;;;;;;;;1046409;28;4088;-49
2023/05/05 02:41:13;;;;;;;;;;;;;;;;;;1040371;28;1701;-48
2023/05/05 02:41:46;;;;;;;;;;;;;;;;;;1040360;28;3916;-45
2023/05/05 02:42:18;;;;;;;;;;;;;;;;;;1037846;28;1793;-49
2023/05/05 02:42:50;;;;;;;;;;;;;;;;;;1037768;28;4119;-50
2023/05/05 02:43:21;;;;;;;;;;;;;;;;;;1041044;28;2805;-50
2023/05/05 02:43:52;;;;;;;;;;;;;;;;;;1039338;28;3890;-48
2023/05/05 02:44:23;;;;;;;;;;;;;;;;;;1041696;28;1784;-48
2023/05/05 02:44:56;;;;;;;;;;;;;;;;;;1042476;28;3794;-47
2023/05/05 02:45:27;;;;;;;;;;;;;;;;;;1038330;28;3192;-49
2023/05/05 02:45:57;;;;;;;;;;;;;;;;;;1041431;28;4510;-50
2023/05/05 02:46:27;;;;;;;;;;;;;;;;;;1042347;28;1731;-47
2023/05/05 02:46:58;;;;;;;;;;;;;;;;;;1042749;28;4102;-48
2023/05/05 02:47:37;;;;;;;;;;;;;;;;;;1042252;28;1889;-50
2023/05/05 02:48:09;;;;;;;;;;;;;;;;;;1038396;28;3836;-47
2023/05/05 02:48:39;;;;;;;;;;;;;;;;;;1041771;28;3884;-49
2023/05/05 02:49:09;;;;;;;;;;;;;;;;;;1043163;28;1706;-47
2023/05/05 02:49:41;;;;;;;;;;;;;;;;;;1049748;28;4124;-51
2023/05/05 02:50:11;;;;;;;;;;;;;;;;;;1048093;28;2916;-46
2023/05/05 02:50:42;;;;;;;;;;;;;;;;;;1049752;28;3987;-47
2023/05/05 02:51:12;;;;;;;;;;;;;;;;;;1050519;28;1609;-44
2023/05/05 02:51:42;;;;;;;;;;;;;;;;;;1047611;28;4441;-49
2023/05/05 02:52:13;;;;;;;;;;;;;;;;;;1049659;28;2861;-46
2023/05/05 02:52:43;;;;;;;;;;;;;;;;;;1045574;28;4029;-47
2023/05/05 02:53:14;;;;;;;;;;;;;;;;;;1045538;28;3050;-51
2023/05/05 02:53:45;;;;;;;;;;;;;;;;;;1040282;28;3813;-48
2023/05/05 02:54:15;;;;;;;;;;;;;;;;;;1042533;28;3198;-47
2023/05/05 02:54:45;;;;;;;;;;;;;;;;;;1042579;28;3844;-48
2023/05/05 02:55:16;;;;;;;;;;;;;;;;;;1041089;28;2977;-52
2023/05/05 02:55:51;;;;;;;;;;;;;;;;;;1040237;28;4397;-47
2023/05/05 02:56:42;;;;;;;;;;;;;;;;;;1041039;28;2920;-46
2023/05/05 02:57:16;;;;;;;;;;;;;;;;;;1044854;28;3830;-51
2023/05/05 02:57:59;;;;;;;;;;;;;;;;;;1044773;28;4157;-50
2023/05/05 02:58:41;;;;;;;;;;;;;;;;;;1044655;28;2956;-49
2023/05/05 02:59:12;;;;;;;;;;;;;;;;;;1041526;28;3851;-46
2023/05/05 02:59:46;;;;;;;;;;;;;;;;;;1042634;28;4076;-47
2023/05/05 03:00:20;;;;;;;;;;;;;;;;;;1039446;28;2944;-48
2023/05/05 03:00:51;;;;;;;;;;;;;;;;;;1043630;28;4174;-48
2023/05/05 03:01:27;;;;;;;;;;;;;;;;;;1045484;28;2674;-47
2023/05/05 03:02:12;;;;;;;;;;;;;;;;;;1046151;28;4212;-51
2023/05/05 03:02:45;;;;;;;;;;;;;;;;;;1044910;28;3964;-47
2023/05/05 03:03:20;;;;;;;;;;;;;;;;;;1046640;28;1889;-48
2023/05/05 03:03:56;;;;;;;;;;;;;;;;;;1043905;28;3928;-48
2023/05/05 03:04:31;;;;;;;;;;;;;;;;;;1046135;28;1800;-50
2023/05/05 03:05:04;;;;;;;;;;;;;;;;;;1045423;28;4144;-48
2023/05/05 03:05:39;;;;;;;;;;;;;;;;;;1045198;28;3031;-47
2023/05/05 03:06:15;;;;;;;;;;;;;;;;;;1045508;28;3704;-48
2023/05/05 03:06:47;;;;;;;;;;;;;;;;;;1045678;28;4072;-46
2023/05/05 03:07:23;;;;;;;;;;;;;;;;;;1045498;28;1691;-47
2023/05/05 03:07:58;;;;;;;;;;;;;;;;;;1045476;28;3906;-47
2023/05/05 03:08:30;;;;;;;;;;;;;;;;;;1045709;28;3077;-50
2023/05/05 03:09:06;;;;;;;;;;;;;;;;;;1046513;28;3940;-51
2023/05/05 03:09:38;;;;;;;;;;;;;;;;;;1047494;28;2060;-46
2023/05/05 03:10:11;;;;;;;;;;;;;;;;;;1044593;28;5227;-49
2023/05/05 03:10:54;;;;;;;;;;;;;;;;;;1043206;28;4122;-48
2023/05/05 03:11:35;;;;;;;;;;;;;;;;;;1046650;28;3041;-48
2023/05/05 03:12:08;;;;;;;;;;;;;;;;;;1045701;28;3977;-52
2023/05/05 03:12:44;;;;;;;;;;;;;;;;;;1046273;28;3871;-48
2023/05/05 03:13:16;;;;;;;;;;;;;;;;;;1045883;28;2789;-53
2023/05/05 03:13:49;;;;;;;;;;;;;;;;;;1045182;28;3968;-52
2023/05/05 03:14:20;;;;;;;;;;;;;;;;;;1044405;28;1872;-51
2023/05/05 03:14:51;;;;;;;;;;;;;;;;;;1047096;28;4431;-48
2023/05/05 03:15:23;;;;;;;;;;;;;;;;;;1044945;28;2973;-49
2023/05/05 03:15:55;;;;;;;;;;;;;;;;;;1045242;28;4015;-48
2023/05/05 03:16:26;;;;;;;;;;;;;;;;;;1045867;28;2827;-51
2023/05/05 03:16:57;;;;;;;;;;;;;;;;;;1045360;28;3937;-49
2023/05/05 03:17:29;;;;;;;;;;;;;;;;;;1044422;28;2954;-46
2023/05/05 03:18:01;;;;;;;;;;;;;;;;;;1045397;28;4121;-44
2023/05/05 03:18:33;;;;;;;;;;;;;;;;;;1046245;28;2743;-49
2023/05/05 03:19:04;;;;;;;;;;;;;;;;;;1047228;28;3757;-45
2023/05/05 03:19:35;;;;;;;;;;;;;;;;;;1047310;28;1836;-50
2023/05/05 03:20:06;;;;;;;;;;;;;;;;;;1045759;28;3926;-53
2023/05/05 03:20:37;;;;;;;;;;;;;;;;;;1045612;28;2132;-49
2023/05/05 03:21:08;;;;;;;;;;;;;;;;;;1047038;28;3875;-53
2023/05/05 03:21:39;;;;;;;;;;;;;;;;;;1045043;28;4151;-47
2023/05/05 03:22:09;;;;;;;;;;;;;;;;;;1045623;28;2829;-50
2023/05/05 03:22:40;;;;;;;;;;;;;;;;;;1047595;28;4071;-50
2023/05/05 03:23:12;;;;;;;;;;;;;;;;;;1044281;28;2979;-50
2023/05/05 03:23:42;;;;;;;;;;;;;;;;;;1044517;28;3800;-49
2023/05/05 03:24:17;;;;;;;;;;;;;;;;;;1046551;28;2996;-49
2023/05/05 03:24:48;;;;;;;;;;;;;;;;;;1046039;28;3786;-50
2023/05/05 03:25:18;;;;;;;;;;;;;;;;;;1046814;28;3199;-48
2023/05/05 03:25:49;;;;;;;;;;;;;;;;;;1046803;28;3949;-50
2023/05/05 03:26:19;;;;;;;;;;;;;;;;;;1046276;28;2828;-48
2023/05/05 03:26:49;;;;;;;;;;;;;;;;;;1046483;28;3777;-51
2023/05/05 03:27:19;;;;;;;;;;;;;;;;;;1047096;28;1856;-48
2023/05/05 03:27:50;;;;;;;;;;;;;;;;;;1046364;28;3882;-52
2023/05/05 03:28:20;;;;;;;;;;;;;;;;;;1046492;28;3025;-50
2023/05/05 03:28:50;;;;;;;;;;;;;;;;;;1045671;28;3889;-49
2023/05/05 03:29:21;;;;;;;;;;;;;;;;;;1046764;28;3103;-53
2023/05/05 03:29:51;;;;;;;;;;;;;;;;;;1047055;28;3824;-47
2023/05/05 03:30:21;;;;;;;;;;;;;;;;;;1044344;28;3228;-48
2023/05/05 03:30:52;;;;;;;;;;;;;;;;;;1046780;28;3948;-47
2023/05/05 03:31:22;;;;;;;;;;;;;;;;;;1044982;28;3018;-50
2023/05/05 03:31:53;;;;;;;;;;;;;;;;;;1045323;28;3785;-49
2023/05/05 03:32:23;;;;;;;;;;;;;;;;;;1045530;28;1744;-53
2023/05/05 03:32:53;;;;;;;;;;;;;;;;;;1044099;28;4733;-46
2023/05/05 03:33:23;;;;;;;;;;;;;;;;;;1046351;28;2931;-48
2023/05/05 03:33:54;;;;;;;;;;;;;;;;;;1045815;28;3848;-47
2023/05/05 03:34:24;;;;;;;;;;;;;;;;;;1047047;28;1871;-49
2023/05/05 03:34:54;;;;;;;;;;;;;;;;;;1046587;28;3889;-48
2023/05/05 03:35:24;;;;;;;;;;;;;;;;;;1047112;28;2851;-50
2023/05/05 03:35:55;;;;;;;;;;;;;;;;;;1043710;28;4101;-48
2023/05/05 03:36:26;;;;;;;;;;;;;;;;;;1043690;28;3017;-47
2023/05/05 03:36:56;;;;;;;;;;;;;;;;;;1045121;28;4421;-52
2023/05/05 03:37:26;;;;;;;;;;;;;;;;;;1052897;28;3203;-49
2023/05/05 03:37:57;;;;;;;;;;;;;;;;;;1052744;28;4056;-48
2023/05/05 03:38:27;;;;;;;;;;;;;;;;;;1054517;28;1718;-50
2023/05/05 03:38:57;;;;;;;;;;;;;;;;;;1053410;28;3916;-50
2023/05/05 03:39:27;;;;;;;;;;;;;;;;;;1046437;28;2839;-48
2023/05/05 03:39:58;;;;;;;;;;;;;;;;;;1046258;28;3935;-51
2023/05/05 03:40:28;;;;;;;;;;;;;;;;;;1046732;28;3137;-51
2023/05/05 03:41:04;;;;;;;;;;;;;;;;;;1046687;28;4035;-48
2023/05/05 03:41:35;;;;;;;;;;;;;;;;;;1046156;28;2938;-50
2023/05/05 03:42:05;;;;;;;;;;;;;;;;;;1046388;28;3893;-49
2023/05/05 03:42:35;;;;;;;;;;;;;;;;;;1046962;28;1670;-50
2023/05/05 03:43:06;;;;;;;;;;;;;;;;;;1046863;28;3790;-53
2023/05/05 03:43:38;;;;;;;;;;;;;;;;;;1046524;28;1798;-49
2023/05/05 03:44:08;;;;;;;;;;;;;;;;;;1047503;28;3974;-50
2023/05/05 03:44:38;;;;;;;;;;;;;;;;;;1046785;28;1848;-48
2023/05/05 03:45:09;;;;;;;;;;;;;;;;;;1046584;28;3830;-51
2023/05/05 03:45:39;;;;;;;;;;;;;;;;;;1045072;28;4444;-50